createdAt,value
2023-05-05T00:03:00.957Z,15.50
2023-05-05T00:08:03.374Z,15.20
2023-05-05T00:13:05.167Z,21.50
2023-05-05T00:18:07.567Z,23.10
2023-05-05T00:23:09.447Z,23.40
2023-05-05T00:28:11.353Z,20.60
2023-05-05T00:33:13.101Z,19.20
2023-05-05T00:38:14.722Z,21.10
2023-05-05T00:43:16.659Z,16.50
2023-05-05T00:48:19.536Z,14.20
2023-05-05T00:53:21.564Z,27.10
2023-05-05T00:58:23.232Z,25.10
2023-05-05T01:03:25.391Z,26.50
2023-05-05T01:08:37.717Z,25.80
2023-05-05T01:13:52.603Z,24.70
2023-05-05T01:24:31.087Z,15.30
2023-05-05T01:29:54.187Z,20.70
2023-05-05T01:35:02.748Z,29.30
2023-05-05T01:40:09.598Z,26.60
2023-05-05T01:45:14.627Z,29.10
2023-05-05T01:50:18.098Z,26.80
2023-05-05T01:55:22.131Z,25.60
2023-05-05T02:00:25.201Z,25.90
2023-05-05T02:05:28.069Z,26.80
2023-05-05T02:10:30.382Z,27.20
2023-05-05T02:15:33.709Z,24.10
2023-05-05T02:20:39.869Z,20.10
2023-05-05T02:25:51.277Z,15.80
2023-05-05T02:30:59.390Z,19.60
2023-05-05T02:36:11.466Z,28.00
2023-05-05T02:41:21.464Z,27.10
2023-05-05T02:46:23.687Z,25.10
2023-05-05T02:51:27.725Z,32.70
2023-05-05T02:56:42.965Z,29.10
2023-05-05T03:02:03.156Z,32.60
2023-05-05T03:07:12.264Z,31.30
2023-05-05T03:12:21.132Z,35.80
2023-05-05T03:17:36.898Z,31.50
2023-05-05T03:22:39.586Z,36.50
2023-05-05T03:27:43.381Z,29.60
2023-05-05T03:32:46.300Z,36.10
2023-05-05T03:37:48.919Z,18.40
2023-05-05T03:42:52.052Z,20.30
2023-05-05T03:47:54.057Z,32.90
2023-05-05T03:52:56.401Z,33.50
2023-05-05T03:57:58.313Z,30.40
2023-05-05T04:03:00.231Z,25.10
2023-05-05T04:08:03.368Z,32.20
2023-05-05T04:13:05.453Z,23.20
2023-05-05T04:18:07.383Z,37.10
2023-05-05T04:23:09.545Z,36.20
2023-05-05T04:28:11.885Z,30.30
2023-05-05T04:33:13.770Z,24.60
2023-05-05T04:38:16.125Z,59.70
2023-05-05T04:43:18.235Z,23.00
2023-05-05T04:48:20.879Z,23.20
2023-05-05T04:53:22.796Z,21.50
2023-05-05T04:58:24.739Z,17.60
2023-05-05T05:03:26.665Z,18.20
2023-05-05T05:08:28.783Z,23.10
2023-05-05T05:13:30.779Z,21.70
2023-05-05T05:18:32.642Z,21.10
2023-05-05T05:23:34.877Z,26.70
2023-05-05T05:28:36.775Z,24.20
2023-05-05T05:33:38.580Z,21.90
2023-05-05T05:38:41.288Z,24.90
2023-05-05T05:43:43.834Z,26.50
2023-05-05T05:48:46.173Z,24.00
2023-05-05T05:53:48.724Z,19.10
2023-05-05T05:58:50.854Z,21.80
2023-05-05T06:03:53.354Z,15.20
2023-05-05T06:08:55.731Z,16.50
2023-05-05T06:13:57.549Z,19.90
2023-05-05T06:18:59.576Z,21.10
2023-05-05T06:24:01.840Z,19.60
2023-05-05T06:29:04.208Z,16.20
2023-05-05T06:34:05.881Z,19.40
2023-05-05T06:39:07.767Z,16.50
2023-05-05T06:44:10.617Z,15.50
2023-05-05T06:49:12.409Z,13.70
2023-05-05T06:54:14.308Z,15.10
2023-05-05T06:59:15.997Z,14.90
2023-05-05T07:04:17.784Z,16.30
2023-05-05T07:09:20.349Z,15.60
2023-05-05T07:14:24.245Z,13.80
2023-05-05T07:19:26.442Z,13.70
2023-05-05T07:24:28.182Z,17.20
2023-05-05T07:29:29.851Z,25.30
2023-05-05T07:34:34.240Z,11.10
2023-05-05T07:39:36.052Z,14.40
2023-05-05T07:44:37.913Z,12.50
2023-05-05T07:49:39.674Z,14.30
2023-05-05T07:54:42.444Z,15.70
2023-05-05T07:59:44.398Z,15.00
2023-05-05T08:04:46.177Z,13.20
2023-05-05T08:09:48.030Z,15.90
2023-05-05T08:14:49.723Z,11.50
2023-05-05T08:19:52.233Z,14.20
2023-05-05T08:24:53.964Z,13.40
2023-05-05T08:29:55.831Z,12.00
2023-05-05T08:34:57.789Z,9.10
2023-05-05T08:39:59.475Z,7.10
2023-05-05T08:45:01.394Z,9.00
2023-05-05T08:50:05.855Z,9.10
2023-05-05T08:55:28.402Z,8.30
2023-05-05T09:00:30.887Z,8.20
2023-05-05T09:05:32.697Z,7.20
2023-05-05T09:10:36.008Z,11.20
2023-05-05T09:15:39.031Z,8.70
2023-05-05T09:20:41.769Z,8.30
2023-05-05T09:25:46.062Z,7.10
2023-05-05T09:30:48.030Z,8.10
2023-05-05T09:35:51.025Z,16.80
2023-05-05T09:40:53.904Z,7.70
2023-05-05T09:46:08.503Z,7.30
2023-05-05T09:51:29.140Z,7.90
2023-05-05T09:56:40.414Z,9.50
2023-05-05T10:01:43.821Z,7.70
2023-05-05T10:06:48.218Z,7.40
2023-05-05T10:11:50.602Z,5.40
2023-05-05T10:16:54.622Z,6.30
2023-05-05T10:22:03.042Z,5.30
2023-05-05T10:27:12.706Z,7.50
2023-05-05T10:37:38.390Z,5.70
2023-05-05T10:42:40.776Z,8.40
2023-05-05T10:47:44.585Z,7.50
2023-05-05T10:53:12.713Z,6.10
2023-05-05T10:58:58.413Z,6.50
2023-05-05T11:04:22.067Z,5.50
2023-05-05T11:09:28.046Z,7.20
2023-05-05T11:14:29.980Z,6.80
2023-05-05T11:19:43.857Z,5.80
2023-05-05T11:24:46.366Z,4.20
2023-05-05T11:30:18.829Z,6.20
2023-05-05T11:35:21.071Z,6.10
2023-05-05T11:40:32.324Z,5.50
2023-05-05T11:45:34.953Z,5.30
2023-05-05T11:50:36.672Z,6.80
2023-05-05T11:55:38.295Z,4.40
2023-05-05T12:00:40.152Z,5.10
2023-05-05T12:10:43.569Z,5.60
2023-05-05T12:15:45.445Z,5.90
2023-05-05T12:20:47.985Z,8.00
2023-05-05T12:25:49.911Z,6.30
2023-05-05T12:30:58.793Z,8.00
2023-05-05T12:36:00.880Z,6.40
2023-05-05T12:41:02.974Z,6.00
2023-05-05T12:46:06.549Z,6.90
2023-05-05T12:51:16.384Z,8.80
2023-05-05T12:56:36.455Z,5.10
2023-05-05T13:01:50.536Z,5.60
2023-05-05T13:07:15.497Z,5.90
2023-05-05T13:12:17.835Z,7.20
2023-05-05T13:17:19.536Z,5.00
2023-05-05T13:22:21.266Z,7.50
2023-05-05T13:27:23.712Z,7.00
2023-05-05T13:32:25.695Z,5.00
2023-05-05T13:37:27.789Z,6.60
2023-05-05T13:42:29.387Z,10.00
2023-05-05T13:47:31.139Z,4.60
2023-05-05T13:52:33.016Z,5.80
2023-05-05T13:57:35.475Z,8.30
2023-05-05T14:02:37.417Z,6.40
2023-05-05T14:07:39.313Z,6.00
2023-05-05T14:12:40.989Z,6.80
2023-05-05T14:17:42.909Z,5.10
2023-05-05T14:22:44.601Z,7.60
2023-05-05T14:27:47.355Z,5.80
2023-05-05T14:32:49.194Z,5.50
2023-05-05T14:37:50.918Z,4.70
2023-05-05T14:42:52.783Z,6.60
2023-05-05T14:47:54.497Z,8.60
2023-05-05T14:52:56.285Z,5.30
2023-05-05T14:57:57.959Z,4.90
2023-05-05T15:02:59.873Z,7.00
2023-05-05T15:08:01.712Z,7.30
2023-05-05T15:13:03.378Z,4.70
2023-05-05T15:18:05.848Z,6.20
2023-05-05T15:23:07.550Z,4.80
2023-05-05T15:28:09.371Z,7.20
2023-05-05T15:33:11.862Z,11.00
2023-05-05T15:38:13.533Z,11.20
2023-05-05T15:43:15.200Z,8.10
2023-05-05T15:48:17.017Z,6.50
2023-05-05T15:58:20.447Z,6.40
2023-05-05T16:03:22.193Z,8.70
2023-05-05T16:08:24.052Z,8.10
2023-05-05T16:13:25.933Z,7.10
2023-05-05T16:18:27.848Z,10.70
2023-05-05T16:28:31.201Z,4.80
2023-05-05T16:33:33.057Z,5.80
2023-05-05T16:38:34.792Z,12.10
2023-05-05T16:43:37.296Z,5.80
2023-05-05T16:48:39.220Z,5.40
2023-05-05T16:58:42.643Z,7.80
2023-05-05T17:03:44.491Z,10.40
2023-05-05T17:13:47.732Z,6.10
2023-05-05T17:18:49.735Z,4.80
2023-05-05T17:23:51.485Z,6.00
2023-05-05T17:28:53.259Z,5.40
2023-05-05T17:33:55.026Z,7.20
2023-05-05T17:43:59.461Z,6.70
2023-05-05T17:49:01.749Z,8.10
2023-05-05T17:54:03.670Z,6.10
2023-05-05T17:59:05.486Z,5.10
2023-05-05T18:09:11.241Z,8.10
2023-05-05T18:14:13.301Z,5.70
2023-05-05T18:19:17.053Z,6.10
2023-05-05T18:24:20.324Z,10.00
2023-05-05T18:29:22.262Z,8.50
2023-05-05T18:39:25.894Z,8.30
2023-05-05T18:44:27.609Z,8.50
2023-05-05T18:49:31.543Z,7.30
2023-05-05T18:54:33.943Z,5.70
2023-05-05T18:59:36.590Z,7.60
2023-05-05T19:04:38.440Z,8.90
2023-05-05T19:09:40.200Z,8.10
2023-05-05T19:14:41.968Z,13.10
2023-05-05T19:19:43.727Z,15.80
2023-05-05T19:24:45.437Z,16.70
2023-05-05T19:29:51.990Z,16.00
2023-05-05T19:34:54.474Z,11.60
2023-05-05T19:44:58.396Z,10.30
2023-05-05T19:50:00.182Z,10.20
2023-05-05T19:55:01.983Z,9.00
2023-05-05T20:00:04.789Z,9.30
2023-05-05T20:05:07.002Z,10.10
2023-05-05T20:15:11.865Z,14.30
2023-05-05T20:20:18.879Z,10.20
2023-05-05T20:25:20.574Z,8.60
2023-05-05T20:30:22.281Z,8.50
2023-05-05T20:35:24.025Z,9.90
2023-05-05T20:40:26.118Z,11.50
2023-05-05T20:50:29.719Z,6.80
2023-05-05T20:55:31.420Z,9.70
2023-05-05T21:00:33.908Z,9.40
2023-05-05T21:05:37.183Z,8.50
2023-05-05T21:10:39.860Z,8.80
2023-05-05T21:15:46.717Z,10.50
2023-05-05T21:20:48.679Z,8.20
2023-05-05T21:25:50.420Z,12.40
2023-05-05T21:31:10.261Z,7.10
2023-05-05T21:36:19.183Z,11.30
2023-05-05T21:41:22.801Z,10.10
2023-05-05T21:46:24.510Z,11.60
2023-05-05T21:51:28.318Z,11.00
2023-05-05T21:56:30.057Z,10.40
2023-05-05T22:01:32.294Z,12.00
2023-05-05T22:06:34.304Z,11.80
2023-05-05T22:11:36.241Z,10.60
2023-05-05T22:16:37.989Z,8.60
2023-05-05T22:21:39.813Z,9.30
2023-05-05T22:26:43.333Z,8.30
2023-05-05T22:31:45.511Z,12.10
2023-05-05T22:36:48.882Z,10.60
2023-05-05T22:41:50.550Z,11.40
2023-05-05T22:46:52.192Z,11.90
2023-05-05T22:51:54.636Z,9.40
2023-05-05T22:56:56.242Z,13.80
2023-05-05T23:01:57.975Z,12.40
2023-05-05T23:06:59.721Z,11.50
2023-05-05T23:12:02.756Z,12.90
2023-05-05T23:17:04.894Z,14.70
2023-05-05T23:22:06.633Z,20.50
2023-05-05T23:27:08.379Z,11.80
2023-05-05T23:32:10.209Z,16.50
2023-05-05T23:37:13.910Z,13.50
2023-05-05T23:42:16.104Z,9.40
2023-05-05T23:47:20.116Z,13.20
2023-05-05T23:52:22.547Z,14.50
2023-05-05T23:57:24.239Z,10.70
